Time;durP1;ratioP1;P1;durP2;ratioP2;P2;SDS_P1;SDS_P2;PMS_P1;PMS_P2;Temp;Humidity;BMP_temperature;BMP_pressure;BME280_temperature;BME280_humidity;BME280_pressure;Samples;Min_cycle;Max_cycle;Signal;HPM_P1;HPM_P2
2023/06/16 00:01:23;;;;;;;8.75;4.85;;;17.80;99.90;;;;;;5014239;28;20138;-78
2023/06/16 00:03:53;;;;;;;6.55;4.97;;;17.90;99.90;;;;;;5013873;28;20042;-77
2023/06/16 00:06:19;;;;;;;9.07;5.38;;;17.90;99.90;;;;;;5013754;28;20049;-78
2023/06/16 00:08:54;;;;;;;9.23;4.65;;;17.80;99.90;;;;;;4997722;28;20445;-77
2023/06/16 00:11:20;;;;;;;6.15;4.57;;;17.80;99.90;;;;;;5013467;28;20056;-78
2023/06/16 00:13:48;;;;;;;8.80;4.32;;;17.80;99.90;;;;;;5013607;28;20053;-78
2023/06/16 00:16:19;;;;;;;6.85;4.60;;;17.80;99.90;;;;;;5013940;28;20050;-77
2023/06/16 00:18:57;;;;;;;8.40;5.13;;;17.70;99.90;;;;;;5014474;28;20381;-77
2023/06/16 00:21:29;;;;;;;9.65;5.10;;;17.70;99.90;;;;;;5013627;28;20054;-77
2023/06/16 00:23:56;;;;;;;8.18;5.13;;;17.70;99.90;;;;;;5013392;28;20603;-77
2023/06/16 00:26:23;;;;;;;5.53;4.53;;;17.60;99.90;;;;;;5012926;28;20117;-77
2023/06/16 00:28:49;;;;;;;7.13;4.75;;;17.60;99.90;;;;;;5014051;28;20048;-77
2023/06/16 00:31:15;;;;;;;6.78;4.63;;;17.60;99.90;;;;;;5013375;28;20033;-77
2023/06/16 00:33:41;;;;;;;5.35;4.65;;;17.50;99.90;;;;;;4996804;28;20423;-77
2023/06/16 00:36:06;;;;;;;7.22;5.57;;;17.50;99.90;;;;;;5013708;28;20048;-77
2023/06/16 00:38:33;;;;;;;8.55;5.93;;;17.40;99.90;;;;;;4997387;28;20470;-77
2023/06/16 00:40:59;;;;;;;7.68;5.25;;;17.30;99.90;;;;;;5013231;28;20050;-77
2023/06/16 00:43:25;;;;;;;10.90;5.95;;;17.20;99.90;;;;;;5013799;28;20045;-77
2023/06/16 00:45:51;;;;;;;10.07;5.78;;;17.20;99.90;;;;;;5013762;28;20593;-77
2023/06/16 00:48:17;;;;;;;8.88;6.30;;;17.10;99.90;;;;;;5013584;28;20046;-77
2023/06/16 00:50:43;;;;;;;8.02;5.88;;;17.10;99.90;;;;;;5012994;28;20124;-77
2023/06/16 00:53:10;;;;;;;7.90;6.30;;;17.10;99.90;;;;;;5013859;28;20525;-77
2023/06/16 00:55:36;;;;;;;8.00;6.43;;;17.10;99.90;;;;;;5013717;28;20529;-77
2023/06/16 00:58:02;;;;;;;7.60;6.25;;;17.10;99.90;;;;;;5012455;28;20045;-77
2023/06/16 01:00:28;;;;;;;7.53;6.20;;;17.00;99.90;;;;;;5012977;28;20038;-77
2023/06/16 01:02:55;;;;;;;8.23;5.93;;;17.00;99.90;;;;;;5013217;28;20042;-77
2023/06/16 01:05:23;;;;;;;8.10;6.93;;;17.00;99.90;;;;;;5012707;28;20077;-77
2023/06/16 01:08:44;;;;;;;11.65;6.78;;;16.90;99.90;;;;;;5011965;28;20101;-77
2023/06/16 01:11:52;;;;;;;8.77;6.63;;;17.00;99.90;;;;;;4994522;28;20128;-77
2023/06/16 01:14:26;;;;;;;10.50;6.57;;;16.90;99.90;;;;;;5012592;28;20050;-77
2023/06/16 01:16:53;;;;;;;9.05;7.03;;;16.90;99.90;;;;;;5011717;28;20052;-77
2023/06/16 01:19:37;;;;;;;7.88;6.18;;;16.90;99.90;;;;;;5011809;28;20045;-77
2023/06/16 01:22:19;;;;;;;;;;;16.90;99.90;;;;;;5012690;28;20045;-77
2023/06/16 01:24:47;;;;;;;9.27;6.63;;;16.80;99.90;;;;;;5012793;28;20011;-77
2023/06/16 01:27:17;;;;;;;10.10;7.30;;;16.90;99.90;;;;;;5012209;28;20105;-77
2023/06/16 01:29:43;;;;;;;11.23;6.68;;;17.00;99.90;;;;;;5011830;28;20125;-77
2023/06/16 01:32:10;;;;;;;8.00;6.72;;;17.00;99.90;;;;;;5012307;28;20046;-77
2023/06/16 01:34:37;;;;;;;8.02;6.78;;;16.90;99.90;;;;;;5011898;28;20092;-77
2023/06/16 01:37:04;;;;;;;11.30;6.82;;;16.90;99.90;;;;;;5011638;28;20046;-77
2023/06/16 01:39:31;;;;;;;9.52;7.28;;;16.90;99.90;;;;;;5011456;28;20046;-77
2023/06/16 01:41:58;;;;;;;9.45;7.53;;;16.90;99.90;;;;;;5011348;28;20069;-77
2023/06/16 01:44:26;;;;;;;11.02;7.10;;;16.90;99.90;;;;;;5011951;28;20045;-77
2023/06/16 01:46:53;;;;;;;9.55;6.93;;;16.80;99.90;;;;;;5012107;28;20041;-77
2023/06/16 01:49:19;;;;;;;10.85;7.05;;;16.80;99.90;;;;;;5012078;28;20413;-77
2023/06/16 01:51:45;;;;;;;10.02;7.57;;;16.80;99.90;;;;;;5013438;28;20397;-77
2023/06/16 01:54:10;;;;;;;10.52;7.80;;;16.80;99.90;;;;;;4995619;28;20041;-77
2023/06/16 01:56:36;;;;;;;10.35;7.60;;;16.80;99.90;;;;;;5011731;28;20045;-77
2023/06/16 01:59:02;;;;;;;9.18;7.75;;;16.80;99.90;;;;;;4996025;28;20038;-77
2023/06/16 02:01:30;;;;;;;11.20;8.18;;;16.90;99.90;;;;;;5014037;28;20041;-77
2023/06/16 02:04:06;;;;;;;8.95;6.82;;;16.90;99.90;;;;;;5012184;28;20046;-77
2023/06/16 02:06:41;;;;;;;8.50;7.10;;;16.90;99.90;;;;;;5010903;28;20088;-77
2023/06/16 02:09:09;;;;;;;10.52;8.25;;;16.80;99.90;;;;;;5010302;28;20038;-77
2023/06/16 02:11:35;;;;;;;10.43;8.30;;;16.80;99.90;;;;;;5010716;28;20038;-77
2023/06/16 02:14:03;;;;;;;10.65;7.45;;;16.70;99.90;;;;;;5010622;28;20077;-77
2023/06/16 02:16:29;;;;;;;9.25;7.78;;;16.70;99.90;;;;;;5010414;28;20050;-77
2023/06/16 02:18:55;;;;;;;8.80;7.90;;;16.70;99.90;;;;;;5010235;28;20518;-77
2023/06/16 02:21:21;;;;;;;10.07;8.55;;;16.70;99.90;;;;;;5010569;28;20056;-77
2023/06/16 02:23:47;;;;;;;10.68;8.23;;;16.70;99.90;;;;;;5010499;28;20072;-77
2023/06/16 02:26:12;;;;;;;11.15;8.63;;;16.70;99.90;;;;;;5010631;28;20120;-77
2023/06/16 02:28:38;;;;;;;13.05;8.73;;;16.70;99.90;;;;;;5010504;28;20049;-77
2023/06/16 02:31:03;;;;;;;10.40;7.63;;;16.60;99.90;;;;;;5010241;28;20042;-77
2023/06/16 02:33:30;;;;;;;12.75;9.10;;;16.60;99.90;;;;;;5011045;28;20565;-77
2023/06/16 02:35:56;;;;;;;13.27;9.30;;;16.60;99.90;;;;;;5014609;28;20128;-77
2023/06/16 02:38:21;;;;;;;14.38;9.38;;;16.60;99.90;;;;;;5014230;28;20073;-77
2023/06/16 02:40:47;;;;;;;11.70;9.27;;;16.50;99.90;;;;;;5013946;28;20034;-77
2023/06/16 02:43:12;;;;;;;13.73;10.38;;;16.40;99.90;;;;;;5014771;28;20034;-77
2023/06/16 02:45:39;;;;;;;12.45;9.48;;;16.50;99.90;;;;;;5014407;28;20045;-77
2023/06/16 02:48:05;;;;;;;13.75;10.23;;;16.50;99.90;;;;;;5014025;28;20120;-77
2023/06/16 02:50:31;;;;;;;12.27;9.10;;;16.50;99.90;;;;;;5015349;28;20126;-77
2023/06/16 02:52:57;;;;;;;12.10;8.68;;;16.40;99.90;;;;;;5016015;28;20473;-77
2023/06/16 02:55:23;;;;;;;12.32;9.43;;;16.50;99.90;;;;;;5016250;28;20046;-77
2023/06/16 02:57:48;;;;;;;11.43;9.20;;;16.50;99.90;;;;;;5014712;28;20544;-77
2023/06/16 03:00:14;;;;;;;11.85;10.18;;;16.50;99.90;;;;;;4998192;28;20133;-77
2023/06/16 03:02:40;;;;;;;12.05;9.57;;;16.50;99.90;;;;;;5015680;28;20077;-77
2023/06/16 03:05:06;;;;;;;12.73;10.00;;;16.50;99.90;;;;;;4999017;28;20046;-77
2023/06/16 03:07:34;;;;;;;14.15;10.70;;;16.50;99.90;;;;;;5015980;28;20041;-77
2023/06/16 03:10:00;;;;;;;15.38;11.18;;;16.50;99.90;;;;;;5016210;28;20041;-77
2023/06/16 03:12:25;;;;;;;13.13;11.02;;;16.40;99.90;;;;;;5016782;28;20044;-77
2023/06/16 03:14:51;;;;;;;14.73;11.70;;;16.40;99.90;;;;;;5015308;28;20049;-77
2023/06/16 03:17:20;;;;;;;13.38;11.25;;;16.50;99.90;;;;;;5015375;28;20108;-77
2023/06/16 03:19:48;;;;;;;15.20;12.68;;;16.50;99.90;;;;;;5015053;28;20505;-77
2023/06/16 03:22:13;;;;;;;13.32;10.80;;;16.50;99.90;;;;;;5015696;28;20085;-77
2023/06/16 03:24:41;;;;;;;13.88;10.98;;;16.60;99.90;;;;;;5014505;28;20088;-76
2023/06/16 03:27:08;;;;;;;15.05;12.05;;;16.60;99.90;;;;;;5014862;28;20049;-77
2023/06/16 03:29:34;;;;;;;14.02;11.15;;;16.60;99.90;;;;;;5014249;28;20077;-77
2023/06/16 03:32:00;;;;;;;13.90;11.25;;;16.60;99.90;;;;;;5014289;28;20166;-77
2023/06/16 03:34:26;;;;;;;16.00;10.95;;;16.60;99.90;;;;;;5016413;28;20092;-77
2023/06/16 03:36:52;;;;;;;13.55;10.80;;;16.70;99.90;;;;;;4998521;28;20080;-77
2023/06/16 03:39:17;;;;;;;16.42;12.18;;;16.70;99.90;;;;;;5014236;28;20065;-77
2023/06/16 03:41:44;;;;;;;14.90;12.00;;;16.60;99.90;;;;;;5014534;28;20053;-77
2023/06/16 03:44:10;;;;;;;15.80;12.73;;;16.60;99.90;;;;;;5014846;28;20675;-77
2023/06/16 03:46:35;;;;;;;18.45;14.70;;;16.60;99.90;;;;;;5013187;28;20038;-77
2023/06/16 03:49:01;;;;;;;18.15;13.77;;;16.60;99.90;;;;;;5013702;28;20045;-77
2023/06/16 03:51:26;;;;;;;17.73;14.43;;;16.60;99.90;;;;;;4998128;28;20041;-77
2023/06/16 03:53:52;;;;;;;18.10;14.07;;;16.60;99.90;;;;;;5014265;28;20173;-77
2023/06/16 03:56:21;;;;;;;18.00;14.57;;;16.60;99.90;;;;;;5013916;28;20442;-77
2023/06/16 03:58:48;;;;;;;17.55;14.25;;;16.60;99.90;;;;;;5015023;28;20052;-77
2023/06/16 04:01:20;;;;;;;20.92;15.13;;;16.60;99.90;;;;;;5014194;28;20060;-77
2023/06/16 04:03:46;;;;;;;17.35;14.45;;;16.60;99.90;;;;;;4997962;28;20046;-77
2023/06/16 04:06:11;;;;;;;19.38;15.90;;;16.60;99.90;;;;;;5013906;28;20532;-77
2023/06/16 04:08:37;;;;;;;20.15;14.90;;;16.50;99.90;;;;;;5013638;28;20034;-77
2023/06/16 04:11:02;;;;;;;20.65;15.40;;;16.60;99.90;;;;;;5013607;28;20034;-77
2023/06/16 04:13:30;;;;;;;20.98;15.23;;;16.50;99.90;;;;;;5013108;28;20044;-77
2023/06/16 04:15:56;;;;;;;18.13;14.25;;;16.60;99.90;;;;;;5014009;28;20518;-77
2023/06/16 04:18:21;;;;;;;18.20;14.18;;;16.50;99.90;;;;;;5013667;28;20085;-77
2023/06/16 04:20:47;;;;;;;20.10;15.15;;;16.60;99.90;;;;;;5013585;28;20564;-77
2023/06/16 04:23:13;;;;;;;17.40;14.30;;;16.60;99.90;;;;;;5013958;28;20444;-78
2023/06/16 04:25:44;;;;;;;18.45;14.85;;;16.60;99.90;;;;;;5013613;28;20458;-78
2023/06/16 04:28:13;;;;;;;17.38;14.45;;;16.60;99.90;;;;;;4996830;28;20042;-78
2023/06/16 04:30:40;;;;;;;19.85;14.35;;;16.70;99.90;;;;;;5013349;28;20095;-78
2023/06/16 04:33:06;;;;;;;17.85;14.73;;;16.70;99.90;;;;;;5014157;28;20069;-77
2023/06/16 04:35:33;;;;;;;17.90;13.73;;;16.80;99.90;;;;;;5014859;28;20493;-78
2023/06/16 04:37:59;;;;;;;18.20;14.48;;;16.80;99.90;;;;;;5014436;28;20108;-77
2023/06/16 04:40:26;;;;;;;17.60;14.25;;;16.90;99.90;;;;;;4996720;28;20064;-78
2023/06/16 04:42:52;;;;;;;17.55;13.65;;;16.90;99.90;;;;;;5013268;28;20124;-78
2023/06/16 04:45:20;;;;;;;17.77;13.38;;;17.10;99.90;;;;;;5013762;28;20458;-78
2023/06/16 04:47:46;;;;;;;16.60;13.30;;;17.20;99.90;;;;;;5012326;28;20405;-79
2023/06/16 04:50:15;;;;;;;18.92;15.30;;;17.30;99.90;;;;;;5012266;28;20498;-77
2023/06/16 04:52:40;;;;;;;19.48;14.00;;;17.50;99.90;;;;;;5012855;28;20046;-78
2023/06/16 04:55:07;;;;;;;16.77;13.60;;;17.70;99.90;;;;;;4996292;28;20129;-78
2023/06/16 04:57:34;;;;;;;21.65;13.93;;;17.90;99.90;;;;;;4994869;28;20084;-78
2023/06/16 05:00:03;;;;;;;19.30;13.55;;;18.00;99.90;;;;;;5012494;28;20469;-77
2023/06/16 05:02:28;;;;;;;17.45;13.45;;;18.30;99.90;;;;;;5012230;28;20509;-78
2023/06/16 05:04:56;;;;;;;19.52;13.07;;;18.50;99.90;;;;;;5011539;28;20125;-78
2023/06/16 05:07:21;;;;;;;16.40;12.40;;;18.80;99.90;;;;;;5011450;28;20042;-79
2023/06/16 05:09:47;;;;;;;14.85;11.13;;;19.00;99.90;;;;;;4995010;28;20061;-78
2023/06/16 05:12:13;;;;;;;15.52;12.32;;;19.20;99.90;;;;;;5012274;28;20046;-78
2023/06/16 05:14:38;;;;;;;13.93;11.55;;;19.40;99.90;;;;;;5012277;28;20552;-78
2023/06/16 05:17:04;;;;;;;13.68;10.88;;;19.70;99.90;;;;;;5012023;28;20516;-78
2023/06/16 05:19:32;;;;;;;15.93;13.40;;;20.10;99.90;;;;;;5011731;28;20046;-78
2023/06/16 05:21:58;;;;;;;17.90;12.40;;;20.20;99.90;;;;;;4995160;28;20045;-79
2023/06/16 05:24:24;;;;;;;14.63;12.13;;;20.30;99.90;;;;;;5011422;28;20053;-79
2023/06/16 05:26:49;;;;;;;15.02;11.55;;;20.60;99.90;;;;;;5011616;28;20034;-78
2023/06/16 05:29:15;;;;;;;15.50;10.82;;;20.80;99.90;;;;;;5011050;28;20121;-78
2023/06/16 05:31:41;;;;;;;14.68;12.32;;;21.10;99.90;;;;;;5017991;23;20084;-68
2023/06/16 05:34:06;;;;;;;13.27;10.05;;;21.20;99.90;;;;;;5012528;28;20049;-70
2023/06/16 05:36:35;;;;;;;18.13;11.98;;;21.50;99.90;;;;;;5012129;28;20426;-70
2023/06/16 05:39:01;;;;;;;16.10;11.73;;;21.60;99.90;;;;;;5010139;28;20049;-70
2023/06/16 05:41:28;;;;;;;13.35;10.55;;;21.60;99.90;;;;;;5012478;28;20088;-70
2023/06/16 05:43:55;;;;;;;14.15;10.55;;;21.70;99.90;;;;;;5012197;28;20046;-69
2023/06/16 05:46:21;;;;;;;15.27;11.85;;;21.90;99.90;;;;;;5010508;28;20088;-69
2023/06/16 05:48:47;;;;;;;15.68;12.70;;;22.10;99.90;;;;;;5012327;28;20030;-70
2023/06/16 05:51:13;;;;;;;16.35;12.30;;;22.00;99.90;;;;;;5010756;28;20172;-70
2023/06/16 05:53:38;;;;;;;18.95;11.80;;;22.20;99.90;;;;;;5012043;28;20034;-70
2023/06/16 05:56:04;;;;;;;11.50;10.18;;;22.30;99.90;;;;;;5012364;28;20037;-71
2023/06/16 05:58:33;;;;;;;12.65;10.05;;;22.50;99.90;;;;;;5010867;28;20038;-70
2023/06/16 06:00:59;;;;;;;12.07;9.25;;;22.50;99.90;;;;;;5011499;28;20441;-70
2023/06/16 06:03:25;;;;;;;10.38;9.27;;;22.50;99.90;;;;;;5011954;28;20514;-70
2023/06/16 06:05:50;;;;;;;12.55;8.90;;;22.40;99.90;;;;;;5010774;28;20053;-69
2023/06/16 06:08:16;;;;;;;10.55;6.90;;;22.40;99.90;;;;;;5010274;28;20464;-69
2023/06/16 06:10:41;;;;;;;11.57;7.30;;;22.70;99.90;;;;;;5011671;28;20048;-70
2023/06/16 06:13:07;;;;;;;12.10;8.60;;;23.10;99.90;;;;;;5011491;28;20037;-70
2023/06/16 06:15:33;;;;;;;9.07;8.18;;;23.20;99.90;;;;;;5011482;28;20064;-70
2023/06/16 06:17:58;;;;;;;10.20;8.13;;;23.40;99.60;;;;;;5011167;28;20064;-70
2023/06/16 06:20:24;;;;;;;10.65;7.95;;;23.50;99.20;;;;;;5009723;28;20413;-70
2023/06/16 06:22:50;;;;;;;8.30;7.00;;;23.70;99.00;;;;;;5011707;28;20034;-70
2023/06/16 06:25:16;;;;;;;11.10;8.35;;;23.90;98.50;;;;;;5011934;28;20041;-70
2023/06/16 06:27:41;;;;;;;10.27;7.35;;;23.90;97.90;;;;;;5010183;28;20387;-70
2023/06/16 06:30:07;;;;;;;8.65;6.68;;;24.10;97.80;;;;;;5011360;28;20037;-70
2023/06/16 06:32:33;;;;;;;9.02;7.05;;;24.30;97.10;;;;;;5011591;28;20069;-70
2023/06/16 06:34:59;;;;;;;7.10;6.35;;;24.40;96.30;;;;;;5011562;28;20042;-70
2023/06/16 06:37:30;;;;;;;9.15;6.15;;;24.70;95.60;;;;;;5011401;28;20145;-70
2023/06/16 06:39:56;;;;;;;11.30;5.97;;;24.80;94.80;;;;;;5011417;28;20081;-70
2023/06/16 06:42:22;;;;;;;9.50;6.50;;;24.90;94.50;;;;;;5011755;28;20469;-70
2023/06/16 06:44:48;;;;;;;7.70;5.68;;;25.10;94.00;;;;;;5011498;28;20092;-70
2023/06/16 06:47:14;;;;;;;6.68;5.97;;;25.00;93.80;;;;;;5011326;28;20073;-70
2023/06/16 06:49:41;;;;;;;7.10;6.40;;;24.80;93.90;;;;;;5009970;28;20075;-70
2023/06/16 06:52:07;;;;;;;8.30;6.75;;;24.90;93.90;;;;;;5011726;28;20038;-70
2023/06/16 06:54:33;;;;;;;7.13;6.18;;;24.70;93.80;;;;;;5011277;28;20048;-70
2023/06/16 06:56:58;;;;;;;8.93;6.97;;;25.10;93.40;;;;;;5009480;28;20038;-70
2023/06/16 06:59:24;;;;;;;9.38;7.10;;;25.20;93.10;;;;;;5009937;28;20120;-70
2023/06/16 07:01:49;;;;;;;8.70;7.38;;;25.30;92.40;;;;;;5011282;28;20048;-70
2023/06/16 07:04:15;;;;;;;9.52;6.75;;;25.30;92.40;;;;;;5008766;28;20040;-70
2023/06/16 07:06:41;;;;;;;16.85;8.77;;;25.60;91.90;;;;;;5010469;28;20033;-70
2023/06/16 07:09:07;;;;;;;10.35;8.73;;;25.60;91.50;;;;;;5010613;28;20042;-70
2023/06/16 07:11:32;;;;;;;15.07;10.02;;;25.70;91.10;;;;;;5010648;28;20045;-70
2023/06/16 07:13:58;;;;;;;12.15;8.77;;;25.20;90.50;;;;;;5003147;28;20112;-70
2023/06/16 07:16:23;;;;;;;12.88;9.75;;;25.40;90.60;;;;;;5011011;28;20046;-70
2023/06/16 07:18:49;;;;;;;12.57;10.00;;;25.30;90.60;;;;;;5011146;28;20041;-70
2023/06/16 07:21:15;;;;;;;10.60;7.75;;;24.60;91.70;;;;;;5013779;28;20122;-69
2023/06/16 07:23:40;;;;;;;12.45;8.00;;;25.00;92.00;;;;;;5013582;28;20034;-69
2023/06/16 07:26:06;;;;;;;12.82;8.27;;;25.10;91.60;;;;;;5015739;28;20041;-70
2023/06/16 07:28:31;;;;;;;9.40;7.10;;;25.50;91.30;;;;;;5016033;28;20034;-70
2023/06/16 07:30:57;;;;;;;12.65;9.02;;;25.80;91.10;;;;;;5015397;28;20041;-70
2023/06/16 07:33:22;;;;;;;10.93;8.80;;;25.90;90.90;;;;;;5015662;28;20107;-70
2023/06/16 07:35:48;;;;;;;8.52;6.03;;;25.50;90.40;;;;;;5014227;28;20053;-70
2023/06/16 07:38:14;;;;;;;8.70;5.47;;;25.70;90.00;;;;;;5015045;28;20033;-70
2023/06/16 07:40:41;;;;;;;7.78;6.88;;;26.00;88.50;;;;;;5014813;28;20394;-70
2023/06/16 07:43:07;;;;;;;9.68;6.50;;;26.30;86.50;;;;;;5014816;28;20635;-70
2023/06/16 07:45:33;;;;;;;12.05;7.13;;;26.30;85.70;;;;;;5014614;28;20037;-70
2023/06/16 07:47:59;;;;;;;7.95;6.30;;;26.30;85.50;;;;;;5014344;28;20049;-70
2023/06/16 07:50:25;;;;;;;12.23;6.70;;;26.30;85.80;;;;;;5014058;28;20486;-70
2023/06/16 07:52:51;;;;;;;8.38;6.90;;;26.60;84.90;;;;;;5014619;28;20034;-70
2023/06/16 07:55:17;;;;;;;6.22;5.32;;;26.50;82.70;;;;;;5014575;28;20042;-69
2023/06/16 07:57:42;;;;;;;6.93;6.20;;;26.50;82.70;;;;;;5013917;28;20044;-70
2023/06/16 08:00:11;;;;;;;5.90;5.20;;;26.30;83.30;;;;;;5013952;28;20046;-70
2023/06/16 08:02:44;;;;;;;5.78;4.53;;;26.40;82.10;;;;;;4996160;28;20037;-70
2023/06/16 08:05:12;;;;;;;5.45;4.63;;;26.50;79.00;;;;;;5014323;28;20052;-70
2023/06/16 08:07:38;;;;;;;6.13;5.35;;;26.30;76.90;;;;;;5013819;28;20057;-70
2023/06/16 08:10:04;;;;;;;6.93;4.15;;;25.60;78.70;;;;;;5013731;28;20037;-69
2023/06/16 08:12:31;;;;;;;5.40;4.22;;;26.10;79.10;;;;;;5013887;28;20452;-70
2023/06/16 08:14:56;;;;;;;6.05;5.00;;;26.00;77.20;;;;;;5013944;28;20053;-70
2023/06/16 08:17:22;;;;;;;5.63;4.18;;;26.00;76.30;;;;;;5013144;28;20517;-69
2023/06/16 08:19:48;;;;;;;4.60;4.18;;;26.30;76.00;;;;;;5013463;28;20042;-70
2023/06/16 08:22:14;;;;;;;5.20;4.70;;;26.00;76.10;;;;;;5012757;28;20065;-70
2023/06/16 08:24:40;;;;;;;5.88;4.40;;;26.20;76.00;;;;;;5013552;28;20486;-70
2023/06/16 08:27:07;;;;;;;4.57;4.03;;;26.30;74.80;;;;;;5013325;28;20053;-70
2023/06/16 08:29:33;;;;;;;5.18;4.28;;;26.30;73.60;;;;;;5012004;28;20497;-69
2023/06/16 08:31:58;;;;;;;6.25;4.68;;;26.40;72.00;;;;;;5012136;28;20122;-70
2023/06/16 08:34:24;;;;;;;6.32;5.03;;;26.60;70.90;;;;;;5013591;28;20655;-69
2023/06/16 08:36:50;;;;;;;7.20;4.30;;;26.70;69.00;;;;;;5012095;28;20048;-70
2023/06/16 08:39:16;;;;;;;4.55;3.65;;;26.60;67.30;;;;;;5013232;28;20080;-70
2023/06/16 08:41:41;;;;;;;3.83;3.38;;;26.80;66.40;;;;;;5011961;28;20038;-70
2023/06/16 08:44:09;;;;;;;5.63;3.47;;;27.00;65.50;;;;;;5013166;28;20050;-70
2023/06/16 08:46:36;;;;;;;7.57;3.63;;;26.90;64.40;;;;;;5013008;28;20490;-70
2023/06/16 08:49:03;;;;;;;3.80;3.20;;;26.80;61.00;;;;;;5011583;28;20461;-70
2023/06/16 08:51:33;;;;;;;3.63;3.10;;;26.90;59.40;;;;;;5012214;28;20506;-70
2023/06/16 08:54:02;;;;;;;3.17;2.85;;;26.80;57.00;;;;;;5013186;28;20485;-70
2023/06/16 08:56:34;;;;;;;6.40;3.10;;;26.90;55.50;;;;;;5012871;28;20046;-70
2023/06/16 08:59:01;;;;;;;4.53;2.83;;;26.90;54.60;;;;;;5012464;28;20038;-70
2023/06/16 09:01:28;;;;;;;5.00;3.00;;;26.80;51.70;;;;;;5013184;28;20045;-70
2023/06/16 09:03:55;;;;;;;5.55;2.92;;;26.70;49.30;;;;;;5013017;28;20042;-70
2023/06/16 09:06:21;;;;;;;4.78;2.30;;;26.50;47.10;;;;;;5011674;28;20440;-73
2023/06/16 09:08:47;;;;;;;3.53;2.83;;;26.60;46.60;;;;;;5011881;28;20045;-71
2023/06/16 09:11:22;;;;;;;4.20;2.22;;;26.60;45.70;;;;;;5011512;28;20037;-71
2023/06/16 09:13:48;;;;;;;4.45;2.53;;;26.80;44.10;;;;;;5012608;28;20033;-70
2023/06/16 09:16:16;;;;;;;3.35;1.95;;;26.80;44.00;;;;;;5011399;28;20050;-71
2023/06/16 09:18:44;;;;;;;2.95;2.65;;;26.60;41.30;;;;;;5012487;28;20505;-71
2023/06/16 09:21:11;;;;;;;3.92;2.30;;;26.60;41.90;;;;;;5012317;28;20122;-71
2023/06/16 09:23:38;;;;;;;4.15;2.50;;;26.70;41.90;;;;;;5012670;28;20088;-70
2023/06/16 09:26:13;;;;;;;5.25;2.45;;;26.60;40.90;;;;;;5011323;28;20053;-70
2023/06/16 09:28:39;;;;;;;3.67;2.58;;;26.60;40.90;;;;;;5012287;28;20038;-70
2023/06/16 09:31:06;;;;;;;6.22;2.38;;;26.50;41.10;;;;;;4993798;28;20045;-70
2023/06/16 09:33:32;;;;;;;4.53;2.63;;;26.50;41.60;;;;;;5009939;28;20042;-71
2023/06/16 09:35:58;;;;;;;3.63;2.55;;;26.20;40.80;;;;;;5010610;28;20034;-70
2023/06/16 09:38:25;;;;;;;2.85;2.25;;;26.20;41.40;;;;;;5012183;28;20034;-70
2023/06/16 09:40:51;;;;;;;4.35;2.45;;;26.60;42.70;;;;;;4994211;28;20052;-70
2023/06/16 09:43:17;;;;;;;4.28;2.20;;;26.50;42.80;;;;;;5010537;28;20120;-70
2023/06/16 09:45:44;;;;;;;6.32;2.58;;;26.70;43.80;;;;;;5010808;28;20071;-71
2023/06/16 09:48:11;;;;;;;2.80;2.47;;;26.70;44.20;;;;;;5011896;28;20190;-70
2023/06/16 09:50:40;;;;;;;5.03;2.65;;;26.60;43.30;;;;;;5011575;28;20041;-71
2023/06/16 09:53:07;;;;;;;3.03;2.55;;;26.70;43.90;;;;;;4994579;28;20038;-70
2023/06/16 09:55:39;;;;;;;3.10;2.40;;;26.60;43.70;;;;;;5002497;28;20099;-70
2023/06/16 09:58:05;;;;;;;4.75;2.25;;;26.40;44.00;;;;;;5010607;28;20052;-70
2023/06/16 10:00:33;;;;;;;3.78;2.33;;;26.70;44.40;;;;;;5011248;28;20093;-71
2023/06/16 10:03:00;;;;;;;4.45;2.30;;;26.40;43.40;;;;;;5010943;28;20056;-70
2023/06/16 10:05:28;;;;;;;4.95;2.50;;;26.40;43.50;;;;;;5011999;28;20042;-71
2023/06/16 10:07:57;;;;;;;4.53;2.58;;;26.30;43.10;;;;;;4978054;28;20048;-70
2023/06/16 10:10:27;;;;;;;5.50;2.25;;;26.30;43.70;;;;;;5010304;28;20046;-71
2023/06/16 10:12:54;;;;;;;3.17;2.20;;;26.40;43.80;;;;;;5012048;28;20030;-70
2023/06/16 10:15:26;;;;;;;5.30;3.10;;;26.30;44.00;;;;;;5011993;28;20084;-70
2023/06/16 10:17:55;;;;;;;5.40;2.35;;;26.30;43.40;;;;;;5011758;28;20045;-71
2023/06/16 10:20:25;;;;;;;6.30;2.67;;;26.30;44.70;;;;;;5010984;28;20049;-71
2023/06/16 10:22:51;;;;;;;2.83;2.00;;;26.30;44.30;;;;;;5010556;28;20057;-70
2023/06/16 10:25:18;;;;;;;3.03;2.20;;;25.90;43.50;;;;;;5011571;28;20413;-71
2023/06/16 10:27:44;;;;;;;4.47;2.30;;;25.90;42.70;;;;;;5011568;28;20065;-71
2023/06/16 10:30:16;;;;;;;4.38;2.70;;;25.90;41.50;;;;;;5011452;28;20034;-71
2023/06/16 10:32:54;;;;;;;4.13;2.85;;;25.70;40.60;;;;;;5011246;28;20040;-71
2023/06/16 10:35:21;;;;;;;2.67;2.08;;;25.80;41.50;;;;;;5011272;28;20045;-71
2023/06/16 10:37:51;;;;;;;3.33;2.67;;;25.90;42.30;;;;;;5011403;28;20049;-71
2023/06/16 10:40:22;;;;;;;3.70;2.83;;;25.90;42.70;;;;;;5011398;28;20045;-71
2023/06/16 10:42:56;;;;;;;5.60;2.95;;;25.80;43.00;;;;;;5011419;28;20057;-71
2023/06/16 10:45:26;;;;;;;2.78;2.30;;;25.50;41.10;;;;;;5011267;28;20046;-71
2023/06/16 10:48:03;;;;;;;3.50;2.20;;;25.60;42.60;;;;;;5010303;28;20077;-71
2023/06/16 10:50:35;;;;;;;2.55;1.77;;;25.60;42.20;;;;;;5011413;28;20076;-71
2023/06/16 10:53:16;;;;;;;5.13;2.30;;;25.70;42.80;;;;;;5010034;28;20038;-71
2023/06/16 10:55:44;;;;;;;9.00;2.80;;;25.40;41.80;;;;;;5012941;28;20048;-71
2023/06/16 10:58:14;;;;;;;4.65;2.47;;;25.30;42.50;;;;;;5014916;28;20420;-71
2023/06/16 11:01:22;;;;;;;5.90;2.53;;;25.30;41.60;;;;;;5013586;28;20080;-70
2023/06/16 11:03:58;;;;;;;3.60;2.63;;;25.20;42.80;;;;;;5014903;28;20529;-71
2023/06/16 11:06:23;;;;;;;3.42;3.13;;;25.20;42.90;;;;;;5015184;28;20042;-71
2023/06/16 11:08:57;;;;;;;4.32;2.67;;;25.20;43.00;;;;;;5014847;28;20034;-71
2023/06/16 11:11:34;;;;;;;4.07;2.70;;;25.30;43.50;;;;;;5014848;28;20366;-71
2023/06/16 11:14:01;;;;;;;2.88;2.03;;;25.50;44.10;;;;;;5013085;28;20064;-70
2023/06/16 11:16:27;;;;;;;7.32;2.80;;;25.40;44.30;;;;;;5014538;28;20510;-70
2023/06/16 11:18:54;;;;;;;4.07;2.15;;;25.50;43.00;;;;;;5014986;28;20065;-71
2023/06/16 11:21:21;;;;;;;4.47;2.58;;;25.40;42.80;;;;;;5014795;28;20046;-71
2023/06/16 11:23:46;;;;;;;4.03;2.40;;;25.50;43.30;;;;;;5013696;28;20089;-71
2023/06/16 11:26:17;;;;;;;3.97;2.42;;;25.50;42.50;;;;;;5013444;28;20074;-71
2023/06/16 11:28:43;;;;;;;4.35;1.90;;;25.40;41.70;;;;;;5014749;28;20069;-70
2023/06/16 11:31:10;;;;;;;3.95;2.20;;;25.20;40.90;;;;;;5031466;22;20058;-77
2023/06/16 11:33:36;;;;;;;4.10;2.20;;;25.10;41.80;;;;;;4974890;28;20047;-77
2023/06/16 11:36:22;;;;;;;5.40;2.30;;;25.20;41.70;;;;;;4958942;28;20534;-77
2023/06/16 11:38:53;;;;;;;5.00;2.28;;;25.20;41.90;;;;;;4993766;28;20077;-77
2023/06/16 11:41:23;;;;;;;4.95;2.28;;;25.30;42.50;;;;;;4994800;28;20073;-77
2023/06/16 11:43:52;;;;;;;3.15;2.25;;;25.30;41.80;;;;;;4993573;28;20046;-76
2023/06/16 11:46:21;;;;;;;3.35;2.53;;;25.40;41.90;;;;;;4993296;28;20042;-78
2023/06/16 11:48:47;;;;;;;5.93;2.60;;;25.40;42.40;;;;;;4993795;28;20553;-77
2023/06/16 11:51:16;;;;;;;4.78;2.08;;;25.40;41.40;;;;;;4993338;28;20042;-78
2023/06/16 11:53:43;;;;;;;5.57;2.42;;;25.50;42.00;;;;;;4993649;28;20085;-77
2023/06/16 11:56:15;;;;;;;4.22;2.28;;;25.20;39.80;;;;;;4993193;28;20074;-77
2023/06/16 11:58:45;;;;;;;3.75;2.22;;;25.20;40.10;;;;;;4993162;28;20046;-77
2023/06/16 12:01:14;;;;;;;3.58;2.17;;;25.20;39.80;;;;;;4993375;28;20046;-75
2023/06/16 12:03:41;;;;;;;6.40;2.47;;;25.10;39.10;;;;;;4977314;28;20105;-77
2023/06/16 12:06:07;;;;;;;3.28;2.33;;;25.10;37.90;;;;;;4992347;28;20177;-77
2023/06/16 12:08:35;;;;;;;4.85;2.38;;;25.10;37.40;;;;;;4983491;28;20039;-77
2023/06/16 12:11:00;;;;;;;2.97;2.10;;;25.10;37.60;;;;;;4981994;28;20070;-77
2023/06/16 12:13:26;;;;;;;4.20;2.55;;;24.90;37.10;;;;;;4973559;28;20141;-77
2023/06/16 12:15:51;;;;;;;3.95;2.53;;;25.10;38.30;;;;;;4969198;28;20039;-78
2023/06/16 12:18:17;;;;;;;2.78;2.22;;;25.10;38.40;;;;;;4972671;28;20097;-77
2023/06/16 12:20:44;;;;;;;6.45;2.05;;;24.90;37.50;;;;;;4974155;28;20129;-77
2023/06/16 12:23:11;;;;;;;5.45;2.15;;;25.10;38.40;;;;;;4973305;28;20046;-77
2023/06/16 12:25:36;;;;;;;5.07;2.53;;;25.10;37.70;;;;;;4973347;28;20530;-76
2023/06/16 12:28:03;;;;;;;2.97;1.85;;;25.10;37.80;;;;;;4973260;28;20086;-77
2023/06/16 12:30:35;;;;;;;4.07;2.30;;;24.90;37.00;;;;;;4968251;28;20070;-77
2023/06/16 12:33:12;;;;;;;3.85;2.80;;;24.90;37.10;;;;;;4972674;28;20034;-80
2023/06/16 12:35:38;;;;;;;3.40;2.33;;;24.90;37.80;;;;;;4974175;28;20519;-71
2023/06/16 12:38:04;;;;;;;4.30;2.00;;;24.70;36.60;;;;;;4973471;28;20093;-71
2023/06/16 12:40:31;;;;;;;2.67;2.10;;;24.80;36.90;;;;;;4973056;28;20050;-70
2023/06/16 12:43:17;;;;;;;4.82;2.40;;;24.80;37.30;;;;;;4972632;28;20053;-70